sensor_id;sensor_type;location;lat;lon;timestamp;P1;durP1;ratioP1;P2;durP2;ratioP2
16579;SDS011;8402;51.466;6.806;2024-03-06T00:02:13;32.60;;;14.47;;
16579;SDS011;8402;51.466;6.806;2024-03-06T00:04:43;28.90;;;14.10;;
16579;SDS011;8402;51.466;6.806;2024-03-06T00:07:13;27.07;;;13.03;;
16579;SDS011;8402;51.466;6.806;2024-03-06T00:09:43;24.97;;;13.27;;
16579;SDS011;8402;51.466;6.806;2024-03-06T00:12:13;23.90;;;12.60;;
16579;SDS011;8402;51.466;6.806;2024-03-06T00:14:45;29.43;;;13.63;;
16579;SDS011;8402;51.466;6.806;2024-03-06T00:17:15;24.77;;;13.10;;
16579;SDS011;8402;51.466;6.806;2024-03-06T00:19:45;23.67;;;12.40;;
16579;SDS011;8402;51.466;6.806;2024-03-06T00:22:15;24.60;;;12.80;;
16579;SDS011;8402;51.466;6.806;2024-03-06T00:24:49;27.37;;;12.60;;
16579;SDS011;8402;51.466;6.806;2024-03-06T00:27:19;27.50;;;13.30;;
16579;SDS011;8402;51.466;6.806;2024-03-06T00:29:51;31.93;;;13.27;;
16579;SDS011;8402;51.466;6.806;2024-03-06T00:32:21;23.57;;;12.33;;
16579;SDS011;8402;51.466;6.806;2024-03-06T00:34:51;26.50;;;13.33;;
16579;SDS011;8402;51.466;6.806;2024-03-06T00:37:21;30.53;;;13.33;;
16579;SDS011;8402;51.466;6.806;2024-03-06T00:39:51;25.87;;;12.80;;
16579;SDS011;8402;51.466;6.806;2024-03-06T00:42:21;23.83;;;12.13;;
16579;SDS011;8402;51.466;6.806;2024-03-06T00:44:53;29.93;;;13.37;;
16579;SDS011;8402;51.466;6.806;2024-03-06T00:47:23;24.87;;;12.23;;
16579;SDS011;8402;51.466;6.806;2024-03-06T00:49:53;26.47;;;12.93;;
16579;SDS011;8402;51.466;6.806;2024-03-06T00:52:24;23.57;;;11.70;;
16579;SDS011;8402;51.466;6.806;2024-03-06T05:58:24;20.37;;;10.03;;
16579;SDS011;8402;51.466;6.806;2024-03-06T06:00:54;21.43;;;10.10;;
16579;SDS011;8402;51.466;6.806;2024-03-06T06:03:24;22.57;;;10.83;;
16579;SDS011;8402;51.466;6.806;2024-03-06T06:05:54;23.07;;;10.27;;
16579;SDS011;8402;51.466;6.806;2024-03-06T06:08:25;24.90;;;10.90;;
16579;SDS011;8402;51.466;6.806;2024-03-06T06:10:55;20.37;;;9.87;;
16579;SDS011;8402;51.466;6.806;2024-03-06T06:13:28;21.60;;;10.30;;
16579;SDS011;8402;51.466;6.806;2024-03-06T06:15:58;21.50;;;9.77;;
16579;SDS011;8402;51.466;6.806;2024-03-06T06:18:29;24.70;;;11.47;;
16579;SDS011;8402;51.466;6.806;2024-03-06T06:20:59;24.23;;;10.57;;
16579;SDS011;8402;51.466;6.806;2024-03-06T06:23:34;26.33;;;11.40;;
16579;SDS011;8402;51.466;6.806;2024-03-06T06:26:04;23.97;;;11.10;;
16579;SDS011;8402;51.466;6.806;2024-03-06T06:28:40;25.37;;;11.10;;
16579;SDS011;8402;51.466;6.806;2024-03-06T06:31:10;22.57;;;9.83;;
16579;SDS011;8402;51.466;6.806;2024-03-06T06:33:41;24.73;;;11.10;;
16579;SDS011;8402;51.466;6.806;2024-03-06T06:36:12;26.57;;;10.93;;
16579;SDS011;8402;51.466;6.806;2024-03-06T06:38:42;24.63;;;10.63;;
16579;SDS011;8402;51.466;6.806;2024-03-06T06:41:12;31.13;;;11.93;;
16579;SDS011;8402;51.466;6.806;2024-03-06T06:43:45;28.80;;;11.70;;
16579;SDS011;8402;51.466;6.806;2024-03-06T06:46:18;29.33;;;11.53;;
16579;SDS011;8402;51.466;6.806;2024-03-06T06:48:47;23.67;;;11.43;;
16579;SDS011;8402;51.466;6.806;2024-03-06T06:51:18;30.83;;;12.40;;
16579;SDS011;8402;51.466;6.806;2024-03-06T06:53:49;29.57;;;11.63;;
16579;SDS011;8402;51.466;6.806;2024-03-06T06:56:22;28.77;;;11.90;;
16579;SDS011;8402;51.466;6.806;2024-03-06T06:58:55;31.30;;;12.43;;
16579;SDS011;8402;51.466;6.806;2024-03-06T07:01:25;27.60;;;12.80;;
16579;SDS011;8402;51.466;6.806;2024-03-06T07:03:55;32.10;;;12.90;;
16579;SDS011;8402;51.466;6.806;2024-03-06T07:06:24;42.93;;;14.07;;
16579;SDS011;8402;51.466;6.806;2024-03-06T07:08:54;30.53;;;13.23;;
16579;SDS011;8402;51.466;6.806;2024-03-06T07:11:24;27.13;;;12.30;;
16579;SDS011;8402;51.466;6.806;2024-03-06T07:13:57;30.83;;;12.97;;
16579;SDS011;8402;51.466;6.806;2024-03-06T07:16:27;27.57;;;12.50;;
16579;SDS011;8402;51.466;6.806;2024-03-06T07:18:57;35.57;;;15.13;;
16579;SDS011;8402;51.466;6.806;2024-03-06T07:21:27;30.67;;;13.43;;
16579;SDS011;8402;51.466;6.806;2024-03-06T07:23:57;31.67;;;13.93;;
16579;SDS011;8402;51.466;6.806;2024-03-06T07:26:27;40.57;;;15.30;;
16579;SDS011;8402;51.466;6.806;2024-03-06T07:28:59;34.77;;;15.50;;
16579;SDS011;8402;51.466;6.806;2024-03-06T07:31:29;33.53;;;15.07;;
16579;SDS011;8402;51.466;6.806;2024-03-06T07:33:59;35.77;;;15.67;;
16579;SDS011;8402;51.466;6.806;2024-03-06T07:36:30;34.10;;;14.50;;
16579;SDS011;8402;51.466;6.806;2024-03-06T07:39:00;35.97;;;14.80;;
16579;SDS011;8402;51.466;6.806;2024-03-06T07:41:31;28.63;;;14.07;;
16579;SDS011;8402;51.466;6.806;2024-03-06T07:44:05;31.63;;;14.23;;
16579;SDS011;8402;51.466;6.806;2024-03-06T07:46:35;28.07;;;13.80;;
16579;SDS011;8402;51.466;6.806;2024-03-06T07:49:05;35.57;;;15.33;;
16579;SDS011;8402;51.466;6.806;2024-03-06T07:51:36;38.47;;;17.23;;
16579;SDS011;8402;51.466;6.806;2024-03-06T07:54:07;51.63;;;19.57;;
16579;SDS011;8402;51.466;6.806;2024-03-06T07:56:37;57.10;;;20.50;;
16579;SDS011;8402;51.466;6.806;2024-03-06T07:59:10;66.27;;;23.13;;
16579;SDS011;8402;51.466;6.806;2024-03-06T08:01:42;64.93;;;23.17;;
16579;SDS011;8402;51.466;6.806;2024-03-06T08:04:12;72.43;;;24.83;;
16579;SDS011;8402;51.466;6.806;2024-03-06T08:06:42;67.87;;;24.67;;
16579;SDS011;8402;51.466;6.806;2024-03-06T08:09:13;74.87;;;25.70;;
16579;SDS011;8402;51.466;6.806;2024-03-06T08:11:43;77.87;;;25.67;;
16579;SDS011;8402;51.466;6.806;2024-03-06T08:14:15;66.33;;;24.93;;
16579;SDS011;8402;51.466;6.806;2024-03-06T08:16:46;72.03;;;26.30;;
16579;SDS011;8402;51.466;6.806;2024-03-06T08:19:15;70.80;;;28.13;;
16579;SDS011;8402;51.466;6.806;2024-03-06T08:21:45;73.87;;;27.23;;
16579;SDS011;8402;51.466;6.806;2024-03-06T08:24:15;76.10;;;27.87;;
16579;SDS011;8402;51.466;6.806;2024-03-06T08:26:45;65.03;;;26.60;;
16579;SDS011;8402;51.466;6.806;2024-03-06T08:29:18;73.60;;;27.20;;
16579;SDS011;8402;51.466;6.806;2024-03-06T08:31:48;63.70;;;25.00;;
16579;SDS011;8402;51.466;6.806;2024-03-06T08:34:18;59.73;;;23.63;;
16579;SDS011;8402;51.466;6.806;2024-03-06T08:36:49;69.33;;;24.67;;
16579;SDS011;8402;51.466;6.806;2024-03-06T08:39:19;79.00;;;26.30;;
16579;SDS011;8402;51.466;6.806;2024-03-06T08:41:49;73.03;;;26.00;;
16579;SDS011;8402;51.466;6.806;2024-03-06T08:44:22;64.00;;;26.60;;
16579;SDS011;8402;51.466;6.806;2024-03-06T08:46:52;62.77;;;25.27;;
16579;SDS011;8402;51.466;6.806;2024-03-06T08:49:22;71.37;;;26.37;;
16579;SDS011;8402;51.466;6.806;2024-03-06T08:51:52;58.97;;;24.50;;
16579;SDS011;8402;51.466;6.806;2024-03-06T08:54:23;66.70;;;26.67;;
16579;SDS011;8402;51.466;6.806;2024-03-06T08:56:53;69.50;;;27.33;;
16579;SDS011;8402;51.466;6.806;2024-03-06T08:59:28;92.27;;;35.57;;
16579;SDS011;8402;51.466;6.806;2024-03-06T09:01:58;72.43;;;30.87;;
16579;SDS011;8402;51.466;6.806;2024-03-06T09:04:41;77.03;;;31.23;;
16579;SDS011;8402;51.466;6.806;2024-03-06T09:07:11;66.77;;;25.97;;
16579;SDS011;8402;51.466;6.806;2024-03-06T09:09:41;58.90;;;25.50;;
16579;SDS011;8402;51.466;6.806;2024-03-06T09:12:11;62.23;;;24.73;;
16579;SDS011;8402;51.466;6.806;2024-03-06T09:14:44;60.53;;;23.93;;
16579;SDS011;8402;51.466;6.806;2024-03-06T09:17:14;60.10;;;23.67;;
16579;SDS011;8402;51.466;6.806;2024-03-06T09:19:44;64.20;;;25.07;;
16579;SDS011;8402;51.466;6.806;2024-03-06T09:22:33;58.17;;;23.17;;
16579;SDS011;8402;51.466;6.806;2024-03-06T09:25:04;56.33;;;23.37;;
16579;SDS011;8402;51.466;6.806;2024-03-06T09:27:35;53.20;;;23.13;;
16579;SDS011;8402;51.466;6.806;2024-03-06T09:30:08;60.67;;;24.67;;
16579;SDS011;8402;51.466;6.806;2024-03-06T09:32:40;60.17;;;23.73;;
16579;SDS011;8402;51.466;6.806;2024-03-06T09:35:11;58.90;;;23.20;;
16579;SDS011;8402;51.466;6.806;2024-03-06T09:37:41;52.43;;;23.43;;
16579;SDS011;8402;51.466;6.806;2024-03-06T09:40:19;48.60;;;22.60;;
16579;SDS011;8402;51.466;6.806;2024-03-06T09:42:51;56.53;;;23.53;;
16579;SDS011;8402;51.466;6.806;2024-03-06T09:45:24;58.73;;;24.77;;
16579;SDS011;8402;51.466;6.806;2024-03-06T09:47:54;63.40;;;24.57;;
16579;SDS011;8402;51.466;6.806;2024-03-06T09:50:24;59.67;;;24.93;;
16579;SDS011;8402;51.466;6.806;2024-03-06T09:52:55;56.23;;;24.37;;
16579;SDS011;8402;51.466;6.806;2024-03-06T09:55:26;56.63;;;24.10;;
16579;SDS011;8402;51.466;6.806;2024-03-06T09:57:57;61.27;;;24.20;;
16579;SDS011;8402;51.466;6.806;2024-03-06T10:00:31;54.17;;;23.37;;
16579;SDS011;8402;51.466;6.806;2024-03-06T10:03:02;57.13;;;24.17;;
16579;SDS011;8402;51.466;6.806;2024-03-06T10:05:35;51.17;;;23.47;;
16579;SDS011;8402;51.466;6.806;2024-03-06T10:08:05;53.80;;;23.33;;
16579;SDS011;8402;51.466;6.806;2024-03-06T10:10:35;54.50;;;23.27;;
16579;SDS011;8402;51.466;6.806;2024-03-06T10:13:05;53.80;;;22.83;;
16579;SDS011;8402;51.466;6.806;2024-03-06T10:15:38;57.33;;;24.60;;
16579;SDS011;8402;51.466;6.806;2024-03-06T10:18:12;57.00;;;24.37;;
16579;SDS011;8402;51.466;6.806;2024-03-06T10:20:45;53.67;;;23.80;;
16579;SDS011;8402;51.466;6.806;2024-03-06T10:23:15;49.60;;;23.23;;
16579;SDS011;8402;51.466;6.806;2024-03-06T10:25:47;54.40;;;23.30;;
16579;SDS011;8402;51.466;6.806;2024-03-06T10:28:19;53.47;;;24.50;;
16579;SDS011;8402;51.466;6.806;2024-03-06T10:31:02;51.90;;;24.00;;
16579;SDS011;8402;51.466;6.806;2024-03-06T10:33:34;63.13;;;26.03;;
16579;SDS011;8402;51.466;6.806;2024-03-06T10:36:04;55.53;;;24.23;;
16579;SDS011;8402;51.466;6.806;2024-03-06T10:38:39;57.67;;;23.97;;
16579;SDS011;8402;51.466;6.806;2024-03-06T10:41:14;63.27;;;27.53;;
16579;SDS011;8402;51.466;6.806;2024-03-06T10:43:47;59.43;;;26.57;;
16579;SDS011;8402;51.466;6.806;2024-03-06T10:46:23;111.80;;;42.27;;
16579;SDS011;8402;51.466;6.806;2024-03-06T10:48:56;58.50;;;25.10;;
16579;SDS011;8402;51.466;6.806;2024-03-06T10:51:27;75.93;;;32.87;;
16579;SDS011;8402;51.466;6.806;2024-03-06T10:53:59;61.97;;;27.63;;
16579;SDS011;8402;51.466;6.806;2024-03-06T10:56:30;65.03;;;26.50;;
16579;SDS011;8402;51.466;6.806;2024-03-06T10:59:00;63.43;;;28.03;;
16579;SDS011;8402;51.466;6.806;2024-03-06T11:01:34;59.37;;;26.40;;
16579;SDS011;8402;51.466;6.806;2024-03-06T11:04:06;56.73;;;27.70;;
16579;SDS011;8402;51.466;6.806;2024-03-06T11:06:38;61.00;;;27.50;;
16579;SDS011;8402;51.466;6.806;2024-03-06T11:09:08;60.67;;;26.17;;
16579;SDS011;8402;51.466;6.806;2024-03-06T11:11:48;66.63;;;26.47;;
16579;SDS011;8402;51.466;6.806;2024-03-06T11:14:21;57.70;;;26.07;;
16579;SDS011;8402;51.466;6.806;2024-03-06T11:17:01;58.70;;;26.87;;
16579;SDS011;8402;51.466;6.806;2024-03-06T11:20:07;57.47;;;26.47;;
16579;SDS011;8402;51.466;6.806;2024-03-06T11:25:56;53.17;;;26.40;;
16579;SDS011;8402;51.466;6.806;2024-03-06T11:28:25;53.53;;;25.37;;
16579;SDS011;8402;51.466;6.806;2024-03-06T11:30:57;55.17;;;25.87;;
16579;SDS011;8402;51.466;6.806;2024-03-06T11:33:36;55.20;;;24.90;;
16579;SDS011;8402;51.466;6.806;2024-03-06T11:36:15;53.33;;;24.50;;
16579;SDS011;8402;51.466;6.806;2024-03-06T11:38:53;52.83;;;24.77;;
16579;SDS011;8402;51.466;6.806;2024-03-06T11:41:26;55.50;;;25.40;;
16579;SDS011;8402;51.466;6.806;2024-03-06T11:43:59;56.77;;;25.80;;
16579;SDS011;8402;51.466;6.806;2024-03-06T11:46:42;47.47;;;23.77;;
16579;SDS011;8402;51.466;6.806;2024-03-06T11:49:19;49.50;;;24.90;;
16579;SDS011;8402;51.466;6.806;2024-03-06T11:51:51;51.33;;;24.20;;
16579;SDS011;8402;51.466;6.806;2024-03-06T11:54:22;46.70;;;23.33;;
16579;SDS011;8402;51.466;6.806;2024-03-06T11:56:54;49.97;;;22.80;;
16579;SDS011;8402;51.466;6.806;2024-03-06T11:59:25;40.30;;;19.93;;
16579;SDS011;8402;51.466;6.806;2024-03-06T12:01:57;42.53;;;21.30;;
16579;SDS011;8402;51.466;6.806;2024-03-06T12:04:32;40.90;;;19.97;;
16579;SDS011;8402;51.466;6.806;2024-03-06T12:07:05;43.23;;;21.40;;
16579;SDS011;8402;51.466;6.806;2024-03-06T12:09:36;43.60;;;20.47;;
16579;SDS011;8402;51.466;6.806;2024-03-06T12:12:09;40.10;;;20.03;;
16579;SDS011;8402;51.466;6.806;2024-03-06T12:14:40;44.33;;;19.50;;
16579;SDS011;8402;51.466;6.806;2024-03-06T12:17:13;41.23;;;19.93;;
16579;SDS011;8402;51.466;6.806;2024-03-06T12:19:47;36.87;;;19.57;;
16579;SDS011;8402;51.466;6.806;2024-03-06T12:22:19;44.97;;;21.57;;
16579;SDS011;8402;51.466;6.806;2024-03-06T12:24:58;43.33;;;20.63;;
16579;SDS011;8402;51.466;6.806;2024-03-06T12:27:33;42.47;;;20.37;;
16579;SDS011;8402;51.466;6.806;2024-03-06T12:30:08;39.67;;;19.23;;
16579;SDS011;8402;51.466;6.806;2024-03-06T12:32:39;39.20;;;19.17;;
16579;SDS011;8402;51.466;6.806;2024-03-06T12:35:12;33.07;;;17.07;;
16579;SDS011;8402;51.466;6.806;2024-03-06T12:37:43;35.90;;;17.03;;
16579;SDS011;8402;51.466;6.806;2024-03-06T12:40:13;31.37;;;16.53;;
16579;SDS011;8402;51.466;6.806;2024-03-06T12:42:43;26.67;;;13.97;;
16579;SDS011;8402;51.466;6.806;2024-03-06T12:45:13;31.10;;;15.80;;
16579;SDS011;8402;51.466;6.806;2024-03-06T12:47:43;27.53;;;14.83;;
16579;SDS011;8402;51.466;6.806;2024-03-06T12:50:17;29.33;;;14.20;;
16579;SDS011;8402;51.466;6.806;2024-03-06T12:52:47;28.13;;;13.40;;
16579;SDS011;8402;51.466;6.806;2024-03-06T12:55:18;26.13;;;13.10;;
16579;SDS011;8402;51.466;6.806;2024-03-06T12:57:48;25.50;;;12.30;;
16579;SDS011;8402;51.466;6.806;2024-03-06T13:00:20;23.87;;;11.90;;
16579;SDS011;8402;51.466;6.806;2024-03-06T13:02:51;22.17;;;11.03;;
16579;SDS011;8402;51.466;6.806;2024-03-06T13:05:23;24.80;;;12.27;;
16579;SDS011;8402;51.466;6.806;2024-03-06T13:07:53;21.70;;;10.97;;
16579;SDS011;8402;51.466;6.806;2024-03-06T13:10:23;24.37;;;12.20;;
16579;SDS011;8402;51.466;6.806;2024-03-06T13:12:53;23.53;;;12.10;;
16579;SDS011;8402;51.466;6.806;2024-03-06T13:15:23;24.10;;;12.93;;
16579;SDS011;8402;51.466;6.806;2024-03-06T13:17:53;24.03;;;12.40;;
16579;SDS011;8402;51.466;6.806;2024-03-06T13:20:25;20.57;;;10.93;;
16579;SDS011;8402;51.466;6.806;2024-03-06T13:22:55;21.73;;;12.07;;
16579;SDS011;8402;51.466;6.806;2024-03-06T13:25:25;18.73;;;10.87;;
16579;SDS011;8402;51.466;6.806;2024-03-06T13:27:56;19.10;;;11.10;;
16579;SDS011;8402;51.466;6.806;2024-03-06T13:30:25;20.83;;;11.27;;
16579;SDS011;8402;51.466;6.806;2024-03-06T13:32:55;20.73;;;9.83;;
16579;SDS011;8402;51.466;6.806;2024-03-06T13:35:28;19.07;;;10.03;;
16579;SDS011;8402;51.466;6.806;2024-03-06T13:37:58;18.80;;;9.43;;
16579;SDS011;8402;51.466;6.806;2024-03-06T13:40:30;20.20;;;10.80;;
16579;SDS011;8402;51.466;6.806;2024-03-06T13:43:00;18.43;;;9.00;;
16579;SDS011;8402;51.466;6.806;2024-03-06T13:45:29;19.33;;;10.00;;
16579;SDS011;8402;51.466;6.806;2024-03-06T13:47:59;20.43;;;10.57;;
16579;SDS011;8402;51.466;6.806;2024-03-06T13:50:32;20.67;;;10.33;;
16579;SDS011;8402;51.466;6.806;2024-03-06T13:53:02;23.80;;;12.20;;
16579;SDS011;8402;51.466;6.806;2024-03-06T13:55:32;23.70;;;11.37;;
16579;SDS011;8402;51.466;6.806;2024-03-06T13:58:02;21.70;;;11.10;;
16579;SDS011;8402;51.466;6.806;2024-03-06T14:00:33;20.23;;;10.97;;
16579;SDS011;8402;51.466;6.806;2024-03-06T14:03:04;20.57;;;10.50;;
16579;SDS011;8402;51.466;6.806;2024-03-06T14:05:36;18.53;;;9.70;;
16579;SDS011;8402;51.466;6.806;2024-03-06T14:08:06;17.63;;;10.20;;
16579;SDS011;8402;51.466;6.806;2024-03-06T14:10:39;17.60;;;9.23;;
16579;SDS011;8402;51.466;6.806;2024-03-06T14:13:09;16.97;;;9.43;;
16579;SDS011;8402;51.466;6.806;2024-03-06T14:15:38;18.80;;;9.27;;
16579;SDS011;8402;51.466;6.806;2024-03-06T14:18:08;18.60;;;9.30;;
16579;SDS011;8402;51.466;6.806;2024-03-06T14:20:41;17.63;;;9.83;;
16579;SDS011;8402;51.466;6.806;2024-03-06T14:23:11;15.47;;;8.63;;
16579;SDS011;8402;51.466;6.806;2024-03-06T14:25:41;19.30;;;9.43;;
16579;SDS011;8402;51.466;6.806;2024-03-06T14:28:11;18.53;;;9.30;;
16579;SDS011;8402;51.466;6.806;2024-03-06T14:30:41;17.87;;;9.07;;
16579;SDS011;8402;51.466;6.806;2024-03-06T14:33:12;17.67;;;9.13;;
16579;SDS011;8402;51.466;6.806;2024-03-06T14:35:44;16.97;;;8.50;;
16579;SDS011;8402;51.466;6.806;2024-03-06T14:38:16;15.27;;;8.10;;
16579;SDS011;8402;51.466;6.806;2024-03-06T14:40:46;16.17;;;8.53;;
16579;SDS011;8402;51.466;6.806;2024-03-06T14:43:16;13.47;;;8.13;;
16579;SDS011;8402;51.466;6.806;2024-03-06T14:45:46;15.87;;;8.43;;
16579;SDS011;8402;51.466;6.806;2024-03-06T14:48:16;14.97;;;8.47;;
16579;SDS011;8402;51.466;6.806;2024-03-06T14:50:48;16.27;;;8.73;;
16579;SDS011;8402;51.466;6.806;2024-03-06T14:53:19;16.93;;;8.10;;
16579;SDS011;8402;51.466;6.806;2024-03-06T14:55:49;15.63;;;8.70;;
16579;SDS011;8402;51.466;6.806;2024-03-06T14:58:22;18.33;;;9.03;;
16579;SDS011;8402;51.466;6.806;2024-03-06T15:00:52;20.97;;;9.30;;
16579;SDS011;8402;51.466;6.806;2024-03-06T15:03:22;20.67;;;9.17;;
16579;SDS011;8402;51.466;6.806;2024-03-06T15:05:54;19.77;;;9.97;;
16579;SDS011;8402;51.466;6.806;2024-03-06T15:08:25;21.33;;;10.13;;
16579;SDS011;8402;51.466;6.806;2024-03-06T15:10:55;22.90;;;11.03;;
16579;SDS011;8402;51.466;6.806;2024-03-06T15:13:25;24.23;;;11.90;;
16579;SDS011;8402;51.466;6.806;2024-03-06T15:15:55;27.73;;;13.97;;
16579;SDS011;8402;51.466;6.806;2024-03-06T15:18:25;39.47;;;21.00;;
16579;SDS011;8402;51.466;6.806;2024-03-06T15:20:58;42.47;;;22.90;;
16579;SDS011;8402;51.466;6.806;2024-03-06T15:23:28;47.23;;;23.13;;
16579;SDS011;8402;51.466;6.806;2024-03-06T15:25:59;45.37;;;25.87;;
16579;SDS011;8402;51.466;6.806;2024-03-06T15:28:29;47.90;;;25.37;;
16579;SDS011;8402;51.466;6.806;2024-03-06T15:30:59;45.80;;;24.43;;
16579;SDS011;8402;51.466;6.806;2024-03-06T15:33:30;54.13;;;24.83;;
16579;SDS011;8402;51.466;6.806;2024-03-06T15:36:03;41.97;;;23.57;;
16579;SDS011;8402;51.466;6.806;2024-03-06T15:38:33;41.00;;;22.77;;
16579;SDS011;8402;51.466;6.806;2024-03-06T15:41:03;47.07;;;23.83;;
16579;SDS011;8402;51.466;6.806;2024-03-06T15:43:35;41.40;;;22.47;;
16579;SDS011;8402;51.466;6.806;2024-03-06T15:46:06;44.60;;;21.87;;
16579;SDS011;8402;51.466;6.806;2024-03-06T15:48:36;42.73;;;22.47;;
16579;SDS011;8402;51.466;6.806;2024-03-06T15:51:08;45.10;;;22.37;;
16579;SDS011;8402;51.466;6.806;2024-03-06T15:53:39;41.10;;;22.17;;
16579;SDS011;8402;51.466;6.806;2024-03-06T15:56:09;41.67;;;21.47;;
16579;SDS011;8402;51.466;6.806;2024-03-06T15:58:41;41.83;;;23.77;;
16579;SDS011;8402;51.466;6.806;2024-03-06T16:01:11;44.50;;;23.37;;
16579;SDS011;8402;51.466;6.806;2024-03-06T16:03:41;43.43;;;22.90;;
16579;SDS011;8402;51.466;6.806;2024-03-06T16:06:14;41.63;;;23.23;;
16579;SDS011;8402;51.466;6.806;2024-03-06T16:08:47;40.73;;;23.03;;
16579;SDS011;8402;51.466;6.806;2024-03-06T16:11:17;45.50;;;24.57;;
16579;SDS011;8402;51.466;6.806;2024-03-06T16:13:47;45.53;;;24.30;;
16579;SDS011;8402;51.466;6.806;2024-03-06T16:16:17;40.67;;;23.03;;
16579;SDS011;8402;51.466;6.806;2024-03-06T16:18:47;37.53;;;23.33;;
16579;SDS011;8402;51.466;6.806;2024-03-06T16:21:20;42.53;;;23.63;;
16579;SDS011;8402;51.466;6.806;2024-03-06T16:23:50;39.93;;;23.23;;
16579;SDS011;8402;51.466;6.806;2024-03-06T16:26:21;41.93;;;23.03;;
16579;SDS011;8402;51.466;6.806;2024-03-06T16:28:51;40.60;;;23.60;;
16579;SDS011;8402;51.466;6.806;2024-03-06T16:31:21;40.87;;;23.50;;
16579;SDS011;8402;51.466;6.806;2024-03-06T16:33:51;38.73;;;23.33;;
16579;SDS011;8402;51.466;6.806;2024-03-06T16:36:24;41.27;;;22.47;;
16579;SDS011;8402;51.466;6.806;2024-03-06T16:38:54;38.23;;;22.13;;
16579;SDS011;8402;51.466;6.806;2024-03-06T16:41:24;36.07;;;21.43;;
16579;SDS011;8402;51.466;6.806;2024-03-06T16:43:54;39.83;;;21.90;;
16579;SDS011;8402;51.466;6.806;2024-03-06T16:46:24;40.90;;;23.30;;
16579;SDS011;8402;51.466;6.806;2024-03-06T16:48:57;40.20;;;23.60;;
16579;SDS011;8402;51.466;6.806;2024-03-06T16:51:29;40.20;;;23.03;;
16579;SDS011;8402;51.466;6.806;2024-03-06T16:53:59;38.17;;;23.07;;
16579;SDS011;8402;51.466;6.806;2024-03-06T16:56:31;42.30;;;23.63;;
16579;SDS011;8402;51.466;6.806;2024-03-06T16:59:01;40.17;;;23.10;;
16579;SDS011;8402;51.466;6.806;2024-03-06T17:01:34;41.37;;;22.17;;
16579;SDS011;8402;51.466;6.806;2024-03-06T17:04:03;37.80;;;22.40;;
16579;SDS011;8402;51.466;6.806;2024-03-06T17:06:36;37.60;;;21.33;;
16579;SDS011;8402;51.466;6.806;2024-03-06T17:09:06;37.30;;;21.20;;
16579;SDS011;8402;51.466;6.806;2024-03-06T17:11:38;36.00;;;21.23;;
16579;SDS011;8402;51.466;6.806;2024-03-06T17:14:08;39.23;;;20.97;;
16579;SDS011;8402;51.466;6.806;2024-03-06T17:16:38;37.37;;;22.43;;
16579;SDS011;8402;51.466;6.806;2024-03-06T17:19:09;35.17;;;21.17;;
16579;SDS011;8402;51.466;6.806;2024-03-06T17:21:41;39.63;;;21.23;;
16579;SDS011;8402;51.466;6.806;2024-03-06T17:24:11;37.83;;;20.40;;
16579;SDS011;8402;51.466;6.806;2024-03-06T17:26:42;39.43;;;20.47;;
16579;SDS011;8402;51.466;6.806;2024-03-06T17:29:12;36.73;;;20.23;;
16579;SDS011;8402;51.466;6.806;2024-03-06T17:31:42;38.47;;;20.67;;
16579;SDS011;8402;51.466;6.806;2024-03-06T17:34:13;38.77;;;20.67;;
16579;SDS011;8402;51.466;6.806;2024-03-06T17:36:46;38.73;;;19.30;;
16579;SDS011;8402;51.466;6.806;2024-03-06T17:39:16;34.27;;;18.17;;
16579;SDS011;8402;51.466;6.806;2024-03-06T17:41:46;32.90;;;18.47;;
16579;SDS011;8402;51.466;6.806;2024-03-06T17:44:15;47.30;;;18.37;;
16579;SDS011;8402;51.466;6.806;2024-03-06T17:46:45;38.30;;;18.77;;
16579;SDS011;8402;51.466;6.806;2024-03-06T17:49:15;36.53;;;18.33;;
16579;SDS011;8402;51.466;6.806;2024-03-06T17:51:49;34.83;;;18.07;;
16579;SDS011;8402;51.466;6.806;2024-03-06T17:54:21;35.93;;;18.10;;
16579;SDS011;8402;51.466;6.806;2024-03-06T17:56:51;39.67;;;17.47;;
16579;SDS011;8402;51.466;6.806;2024-03-06T17:59:24;43.10;;;18.50;;
16579;SDS011;8402;51.466;6.806;2024-03-06T18:01:55;34.73;;;17.80;;
16579;SDS011;8402;51.466;6.806;2024-03-06T18:04:24;34.30;;;18.20;;
16579;SDS011;8402;51.466;6.806;2024-03-06T18:06:57;37.50;;;17.47;;
16579;SDS011;8402;51.466;6.806;2024-03-06T18:09:27;36.63;;;18.00;;
16579;SDS011;8402;51.466;6.806;2024-03-06T18:11:57;35.20;;;17.10;;
16579;SDS011;8402;51.466;6.806;2024-03-06T18:14:27;37.77;;;18.30;;
16579;SDS011;8402;51.466;6.806;2024-03-06T18:16:57;36.87;;;17.33;;
16579;SDS011;8402;51.466;6.806;2024-03-06T18:19:27;33.17;;;16.83;;
16579;SDS011;8402;51.466;6.806;2024-03-06T18:21:59;40.13;;;17.77;;
16579;SDS011;8402;51.466;6.806;2024-03-06T18:24:29;37.87;;;17.90;;
16579;SDS011;8402;51.466;6.806;2024-03-06T18:26:59;34.73;;;17.47;;
16579;SDS011;8402;51.466;6.806;2024-03-06T18:29:29;40.17;;;17.77;;
16579;SDS011;8402;51.466;6.806;2024-03-06T18:31:59;35.10;;;17.60;;
16579;SDS011;8402;51.466;6.806;2024-03-06T18:34:30;39.80;;;18.87;;
16579;SDS011;8402;51.466;6.806;2024-03-06T18:37:03;36.33;;;17.47;;
16579;SDS011;8402;51.466;6.806;2024-03-06T18:39:33;38.20;;;18.37;;
16579;SDS011;8402;51.466;6.806;2024-03-06T18:42:03;37.17;;;18.37;;
16579;SDS011;8402;51.466;6.806;2024-03-06T18:44:46;37.30;;;17.90;;
16579;SDS011;8402;51.466;6.806;2024-03-06T18:47:16;39.50;;;18.07;;
16579;SDS011;8402;51.466;6.806;2024-03-06T18:49:46;34.83;;;17.13;;
16579;SDS011;8402;51.466;6.806;2024-03-06T18:52:18;39.07;;;17.80;;
16579;SDS011;8402;51.466;6.806;2024-03-06T18:54:48;39.10;;;17.33;;
16579;SDS011;8402;51.466;6.806;2024-03-06T18:57:18;36.17;;;17.77;;
16579;SDS011;8402;51.466;6.806;2024-03-06T18:59:48;39.97;;;16.57;;
16579;SDS011;8402;51.466;6.806;2024-03-06T19:02:19;36.40;;;17.30;;
16579;SDS011;8402;51.466;6.806;2024-03-06T19:04:49;35.20;;;17.63;;
16579;SDS011;8402;51.466;6.806;2024-03-06T19:07:22;33.10;;;16.70;;
16579;SDS011;8402;51.466;6.806;2024-03-06T19:09:52;38.30;;;16.80;;
16579;SDS011;8402;51.466;6.806;2024-03-06T19:12:22;37.80;;;16.90;;
16579;SDS011;8402;51.466;6.806;2024-03-06T19:14:52;34.23;;;16.63;;
16579;SDS011;8402;51.466;6.806;2024-03-06T19:17:22;39.20;;;17.63;;
16579;SDS011;8402;51.466;6.806;2024-03-06T19:19:52;40.07;;;17.47;;
16579;SDS011;8402;51.466;6.806;2024-03-06T19:22:25;38.97;;;17.70;;
16579;SDS011;8402;51.466;6.806;2024-03-06T19:24:55;37.77;;;16.67;;
16579;SDS011;8402;51.466;6.806;2024-03-06T19:27:25;37.80;;;17.57;;
16579;SDS011;8402;51.466;6.806;2024-03-06T19:29:56;34.07;;;17.40;;
16579;SDS011;8402;51.466;6.806;2024-03-06T19:32:26;38.40;;;17.57;;
16579;SDS011;8402;51.466;6.806;2024-03-06T19:35:12;41.17;;;18.07;;
16579;SDS011;8402;51.466;6.806;2024-03-06T19:37:44;40.97;;;17.87;;
16579;SDS011;8402;51.466;6.806;2024-03-06T19:40:14;43.00;;;18.13;;
16579;SDS011;8402;51.466;6.806;2024-03-06T19:42:45;43.83;;;19.33;;
16579;SDS011;8402;51.466;6.806;2024-03-06T19:45:15;43.60;;;18.20;;
16579;SDS011;8402;51.466;6.806;2024-03-06T19:47:45;42.37;;;19.30;;
16579;SDS011;8402;51.466;6.806;2024-03-06T19:50:15;45.50;;;19.43;;
16579;SDS011;8402;51.466;6.806;2024-03-06T19:52:48;39.93;;;18.07;;
16579;SDS011;8402;51.466;6.806;2024-03-06T19:55:18;39.43;;;17.93;;
16579;SDS011;8402;51.466;6.806;2024-03-06T19:57:48;42.17;;;18.43;;
16579;SDS011;8402;51.466;6.806;2024-03-06T20:00:18;41.53;;;18.17;;
16579;SDS011;8402;51.466;6.806;2024-03-06T20:02:49;39.90;;;17.07;;
16579;SDS011;8402;51.466;6.806;2024-03-06T20:05:19;39.83;;;18.17;;
16579;SDS011;8402;51.466;6.806;2024-03-06T20:07:52;40.53;;;18.83;;